sensor_id;sensor_type;location;lat;lon;timestamp;pressure;altitude;pressure_sealevel;temperature;humidity
28628;BME280;15815;46.760;19.604;2022-08-07T00:01:41;100384.03;;;26.32;48.38
28628;BME280;15815;46.760;19.604;2022-08-07T00:04:07;100384.84;;;26.32;48.23
28628;BME280;15815;46.760;19.604;2022-08-07T00:06:32;100380.31;;;26.26;48.62
28628;BME280;15815;46.760;19.604;2022-08-07T00:08:57;100386.06;;;26.26;48.69
28628;BME280;15815;46.760;19.604;2022-08-07T00:11:23;100385.25;;;26.19;48.69
28628;BME280;15815;46.760;19.604;2022-08-07T00:13:48;100381.81;;;26.15;48.81
28628;BME280;15815;46.760;19.604;2022-08-07T00:16:14;100378.69;;;26.19;48.86
28628;BME280;15815;46.760;19.604;2022-08-07T00:18:39;100377.06;;;26.12;49.02
28628;BME280;15815;46.760;19.604;2022-08-07T00:21:07;100373.59;;;26.03;49.37
28628;BME280;15815;46.760;19.604;2022-08-07T00:23:35;100369.69;;;26.06;49.36
28628;BME280;15815;46.760;19.604;2022-08-07T00:26:03;100376.41;;;25.97;49.38
28628;BME280;15815;46.760;19.604;2022-08-07T00:28:29;100376.19;;;26.01;49.13
28628;BME280;15815;46.760;19.604;2022-08-07T00:30:55;100375.38;;;26.00;49.25
28628;BME280;15815;46.760;19.604;2022-08-07T00:33:20;100381.38;;;25.97;49.43
28628;BME280;15815;46.760;19.604;2022-08-07T00:35:54;100388.22;;;25.99;49.38
28628;BME280;15815;46.760;19.604;2022-08-07T00:38:20;100386.03;;;25.88;49.49
28628;BME280;15815;46.760;19.604;2022-08-07T00:40:45;100393.84;;;25.82;49.99
28628;BME280;15815;46.760;19.604;2022-08-07T00:43:12;100393.94;;;25.94;49.42
28628;BME280;15815;46.760;19.604;2022-08-07T00:45:39;100393.03;;;25.82;49.40
28628;BME280;15815;46.760;19.604;2022-08-07T00:48:05;100392.81;;;25.85;49.60
28628;BME280;15815;46.760;19.604;2022-08-07T00:50:31;100400.16;;;25.86;49.76
28628;BME280;15815;46.760;19.604;2022-08-07T00:52:57;100399.34;;;25.86;49.71
28628;BME280;15815;46.760;19.604;2022-08-07T00:55:22;100398.81;;;25.82;49.95
28628;BME280;15815;46.760;19.604;2022-08-07T00:57:48;100390.91;;;25.77;49.93
28628;BME280;15815;46.760;19.604;2022-08-07T01:00:13;100398.81;;;25.82;49.94
28628;BME280;15815;46.760;19.604;2022-08-07T01:02:40;100395.09;;;25.76;50.06
28628;BME280;15815;46.760;19.604;2022-08-07T01:05:08;100402.63;;;25.73;50.10
28628;BME280;15815;46.760;19.604;2022-08-07T01:07:34;100402.84;;;25.70;50.45
28628;BME280;15815;46.760;19.604;2022-08-07T01:10:00;100405.13;;;25.66;50.52
28628;BME280;15815;46.760;19.604;2022-08-07T01:12:26;100403.88;;;25.67;50.47
28628;BME280;15815;46.760;19.604;2022-08-07T01:14:51;100409.03;;;25.63;50.58
28628;BME280;15815;46.760;19.604;2022-08-07T01:17:17;100411.84;;;25.57;50.83
28628;BME280;15815;46.760;19.604;2022-08-07T01:19:43;100405.25;;;25.51;51.11
28628;BME280;15815;46.760;19.604;2022-08-07T01:22:09;100410.28;;;25.56;50.83
28628;BME280;15815;46.760;19.604;2022-08-07T01:24:35;100413.66;;;25.54;50.93
28628;BME280;15815;46.760;19.604;2022-08-07T01:27:01;100414.09;;;25.47;51.16
28628;BME280;15815;46.760;19.604;2022-08-07T01:29:27;100408.84;;;25.46;51.06
28628;BME280;15815;46.760;19.604;2022-08-07T01:31:53;100409.34;;;25.44;51.12
28628;BME280;15815;46.760;19.604;2022-08-07T01:34:19;100405.97;;;25.46;50.87
28628;BME280;15815;46.760;19.604;2022-08-07T01:36:45;100405.44;;;25.47;50.88
28628;BME280;15815;46.760;19.604;2022-08-07T01:39:12;100392.69;;;25.48;50.80
28628;BME280;15815;46.760;19.604;2022-08-07T01:41:38;100400.16;;;25.40;50.87
28628;BME280;15815;46.760;19.604;2022-08-07T01:44:04;100401.44;;;25.39;50.88
28628;BME280;15815;46.760;19.604;2022-08-07T01:46:29;100392.47;;;25.32;51.38
28628;BME280;15815;46.760;19.604;2022-08-07T01:48:55;100397.16;;;25.29;51.11
28628;BME280;15815;46.760;19.604;2022-08-07T01:51:22;100393.94;;;25.21;51.43
28628;BME280;15815;46.760;19.604;2022-08-07T01:53:51;100404.19;;;25.28;51.33
28628;BME280;15815;46.760;19.604;2022-08-07T01:56:32;100403.34;;;25.22;51.28
28628;BME280;15815;46.760;19.604;2022-08-07T01:59:03;100401.16;;;25.17;51.55
28628;BME280;15815;46.760;19.604;2022-08-07T02:01:33;100397.78;;;25.18;51.48
28628;BME280;15815;46.760;19.604;2022-08-07T02:04:17;100402.97;;;25.14;51.79
28628;BME280;15815;46.760;19.604;2022-08-07T02:06:48;100406.78;;;25.06;51.83
28628;BME280;15815;46.760;19.604;2022-08-07T02:09:16;100413.91;;;25.10;51.68
28628;BME280;15815;46.760;19.604;2022-08-07T02:11:44;100401.09;;;25.11;51.47
28628;BME280;15815;46.760;19.604;2022-08-07T02:14:13;100400.53;;;25.07;51.84
28628;BME280;15815;46.760;19.604;2022-08-07T02:16:40;100405.56;;;25.12;51.59
28628;BME280;15815;46.760;19.604;2022-08-07T02:19:09;100410.59;;;25.17;51.17
28628;BME280;15815;46.760;19.604;2022-08-07T02:21:37;100406.13;;;25.16;51.03
28628;BME280;15815;46.760;19.604;2022-08-07T02:24:04;100415.72;;;25.08;51.30
28628;BME280;15815;46.760;19.604;2022-08-07T02:26:31;100411.75;;;25.05;51.49
28628;BME280;15815;46.760;19.604;2022-08-07T02:28:57;100410.41;;;25.01;51.54
28628;BME280;15815;46.760;19.604;2022-08-07T02:31:24;100414.56;;;25.00;51.63
28628;BME280;15815;46.760;19.604;2022-08-07T02:33:51;100419.88;;;25.07;51.37
28628;BME280;15815;46.760;19.604;2022-08-07T02:36:18;100412.47;;;25.00;51.52
28628;BME280;15815;46.760;19.604;2022-08-07T02:38:44;100417.63;;;24.96;51.92
28628;BME280;15815;46.760;19.604;2022-08-07T02:41:11;100413.28;;;25.01;51.47
28628;BME280;15815;46.760;19.604;2022-08-07T02:43:37;100422.88;;;24.98;51.63
28628;BME280;15815;46.760;19.604;2022-08-07T02:46:05;100414.91;;;25.07;51.30
28628;BME280;15815;46.760;19.604;2022-08-07T02:48:32;100413.97;;;24.95;51.15
28628;BME280;15815;46.760;19.604;2022-08-07T02:51:02;100417.75;;;24.87;51.79
28628;BME280;15815;46.760;19.604;2022-08-07T02:53:32;100412.88;;;24.93;51.49
28628;BME280;15815;46.760;19.604;2022-08-07T02:56:00;100404.59;;;24.80;52.03
28628;BME280;15815;46.760;19.604;2022-08-07T02:58:28;100412.00;;;24.87;51.54
28628;BME280;15815;46.760;19.604;2022-08-07T03:00:57;100414.22;;;24.77;51.92
28628;BME280;15815;46.760;19.604;2022-08-07T03:03:25;100415.16;;;24.89;51.49
28628;BME280;15815;46.760;19.604;2022-08-07T03:05:52;100415.09;;;24.83;51.78
28628;BME280;15815;46.760;19.604;2022-08-07T03:08:19;100423.91;;;24.80;51.54
28628;BME280;15815;46.760;19.604;2022-08-07T03:10:45;100418.97;;;24.80;51.69
28628;BME280;15815;46.760;19.604;2022-08-07T03:13:13;100421.56;;;24.78;51.59
28628;BME280;15815;46.760;19.604;2022-08-07T03:15:38;100430.25;;;24.84;51.43
28628;BME280;15815;46.760;19.604;2022-08-07T03:18:04;100424.44;;;24.78;51.61
28628;BME280;15815;46.760;19.604;2022-08-07T03:20:30;100429.22;;;24.67;51.98
28628;BME280;15815;46.760;19.604;2022-08-07T03:22:56;100431.69;;;24.59;52.22
28628;BME280;15815;46.760;19.604;2022-08-07T03:25:23;100430.31;;;24.69;52.00
28628;BME280;15815;46.760;19.604;2022-08-07T03:27:50;100429.69;;;24.65;52.05
28628;BME280;15815;46.760;19.604;2022-08-07T03:30:16;100434.47;;;24.68;51.75
28628;BME280;15815;46.760;19.604;2022-08-07T03:32:42;100437.06;;;24.66;51.63
28628;BME280;15815;46.760;19.604;2022-08-07T03:35:12;100443.19;;;24.59;51.85
28628;BME280;15815;46.760;19.604;2022-08-07T03:37:38;100445.78;;;24.57;52.05
28628;BME280;15815;46.760;19.604;2022-08-07T03:40:06;100447.56;;;24.54;52.16
28628;BME280;15815;46.760;19.604;2022-08-07T03:42:34;100455.69;;;24.56;52.02
28628;BME280;15815;46.760;19.604;2022-08-07T03:45:00;100444.41;;;24.52;52.17
28628;BME280;15815;46.760;19.604;2022-08-07T03:47:26;100451.56;;;24.42;52.86
28628;BME280;15815;46.760;19.604;2022-08-07T03:49:52;100454.31;;;24.37;53.08
28628;BME280;15815;46.760;19.604;2022-08-07T03:52:21;100456.91;;;24.34;53.54
28628;BME280;15815;46.760;19.604;2022-08-07T03:54:47;100454.25;;;24.31;53.96
28628;BME280;15815;46.760;19.604;2022-08-07T03:57:13;100450.56;;;24.30;54.02
28628;BME280;15815;46.760;19.604;2022-08-07T03:59:40;100451.25;;;24.25;53.95
28628;BME280;15815;46.760;19.604;2022-08-07T04:02:06;100458.97;;;24.19;54.18
28628;BME280;15815;46.760;19.604;2022-08-07T04:04:32;100454.25;;;24.16;54.22
28628;BME280;15815;46.760;19.604;2022-08-07T04:06:58;100460.19;;;24.13;54.39
28628;BME280;15815;46.760;19.604;2022-08-07T04:09:24;100454.94;;;24.11;54.31
28628;BME280;15815;46.760;19.604;2022-08-07T04:11:52;100446.22;;;24.20;53.79
28628;BME280;15815;46.760;19.604;2022-08-07T04:14:18;100446.22;;;24.20;53.72
28628;BME280;15815;46.760;19.604;2022-08-07T04:16:44;100459.19;;;24.30;53.32
28628;BME280;15815;46.760;19.604;2022-08-07T04:19:09;100470.06;;;24.26;53.72
28628;BME280;15815;46.760;19.604;2022-08-07T04:21:35;100454.94;;;24.41;52.69
28628;BME280;15815;46.760;19.604;2022-08-07T04:24:00;100465.66;;;24.40;53.15
28628;BME280;15815;46.760;19.604;2022-08-07T04:26:27;100459.69;;;24.44;52.75
28628;BME280;15815;46.760;19.604;2022-08-07T04:28:52;100474.94;;;24.50;52.30
28628;BME280;15815;46.760;19.604;2022-08-07T04:31:17;100468.41;;;24.49;52.67
28628;BME280;15815;46.760;19.604;2022-08-07T04:33:44;100476.50;;;24.51;52.39
28628;BME280;15815;46.760;19.604;2022-08-07T04:36:10;100480.50;;;24.39;53.08
28628;BME280;15815;46.760;19.604;2022-08-07T04:38:36;100484.75;;;24.43;53.10
28628;BME280;15815;46.760;19.604;2022-08-07T04:41:02;100483.56;;;24.50;53.02
28628;BME280;15815;46.760;19.604;2022-08-07T04:43:36;100479.25;;;24.60;52.57
28628;BME280;15815;46.760;19.604;2022-08-07T04:51:08;100492.31;;;24.76;52.09
28628;BME280;15815;46.760;19.604;2022-08-07T04:53:43;100480.78;;;24.90;51.91
28628;BME280;15815;46.760;19.604;2022-08-07T04:56:36;100483.34;;;24.88;51.59
28628;BME280;15815;46.760;19.604;2022-08-07T04:59:12;100490.41;;;24.87;52.01
28628;BME280;15815;46.760;19.604;2022-08-07T05:01:48;100480.19;;;25.01;51.42
28628;BME280;15815;46.760;19.604;2022-08-07T05:04:40;100496.16;;;25.02;51.24
28628;BME280;15815;46.760;19.604;2022-08-07T05:07:24;100492.00;;;25.03;50.69
28628;BME280;15815;46.760;19.604;2022-08-07T05:09:59;100492.88;;;24.94;50.49
28628;BME280;15815;46.760;19.604;2022-08-07T05:12:35;100502.63;;;24.82;51.45
28628;BME280;15815;46.760;19.604;2022-08-07T05:15:09;100507.66;;;24.87;50.71
28628;BME280;15815;46.760;19.604;2022-08-07T05:17:50;100517.00;;;24.82;50.53
28628;BME280;15815;46.760;19.604;2022-08-07T05:20:23;100513.03;;;24.80;50.29
28628;BME280;15815;46.760;19.604;2022-08-07T05:22:55;100515.91;;;24.65;50.70
28628;BME280;15815;46.760;19.604;2022-08-07T05:25:21;100518.69;;;24.59;51.05
28628;BME280;15815;46.760;19.604;2022-08-07T05:27:49;100526.03;;;24.60;51.30
28628;BME280;15815;46.760;19.604;2022-08-07T05:30:16;100527.03;;;24.72;50.79
28628;BME280;15815;46.760;19.604;2022-08-07T05:32:43;100528.63;;;24.73;50.74
28628;BME280;15815;46.760;19.604;2022-08-07T05:35:11;100530.00;;;24.78;50.84
28628;BME280;15815;46.760;19.604;2022-08-07T05:37:39;100528.63;;;24.73;51.04
28628;BME280;15815;46.760;19.604;2022-08-07T05:40:05;100517.41;;;24.75;50.82
28628;BME280;15815;46.760;19.604;2022-08-07T05:42:31;100525.44;;;24.71;51.72
28628;BME280;15815;46.760;19.604;2022-08-07T05:44:57;100518.28;;;24.81;50.94
28628;BME280;15815;46.760;19.604;2022-08-07T05:47:23;100526.97;;;24.87;51.03
28628;BME280;15815;46.760;19.604;2022-08-07T05:49:50;100522.72;;;24.97;50.52
28628;BME280;15815;46.760;19.604;2022-08-07T05:52:17;100522.97;;;25.14;50.34
28628;BME280;15815;46.760;19.604;2022-08-07T05:54:43;100527.72;;;25.17;49.33
28628;BME280;15815;46.760;19.604;2022-08-07T05:57:09;100535.06;;;25.18;48.66
28628;BME280;15815;46.760;19.604;2022-08-07T05:59:37;100532.09;;;25.12;48.24
28628;BME280;15815;46.760;19.604;2022-08-07T06:02:05;100538.06;;;25.09;48.61
28628;BME280;15815;46.760;19.604;2022-08-07T06:04:36;100539.06;;;25.06;48.35
28628;BME280;15815;46.760;19.604;2022-08-07T06:07:03;100542.97;;;25.03;48.09
28628;BME280;15815;46.760;19.604;2022-08-07T06:09:33;100542.56;;;24.95;47.95
28628;BME280;15815;46.760;19.604;2022-08-07T06:11:59;100539.06;;;24.91;48.22
28628;BME280;15815;46.760;19.604;2022-08-07T06:14:25;100547.59;;;24.85;48.62
28628;BME280;15815;46.760;19.604;2022-08-07T06:16:51;100549.19;;;24.86;48.69
28628;BME280;15815;46.760;19.604;2022-08-07T06:19:18;100555.94;;;24.83;49.01
28628;BME280;15815;46.760;19.604;2022-08-07T06:21:47;100547.59;;;24.85;48.21
28628;BME280;15815;46.760;19.604;2022-08-07T06:24:14;100551.97;;;24.95;48.04
28628;BME280;15815;46.760;19.604;2022-08-07T06:26:40;100552.25;;;24.98;47.81
28628;BME280;15815;46.760;19.604;2022-08-07T06:29:06;100555.47;;;25.00;47.95
28628;BME280;15815;46.760;19.604;2022-08-07T06:31:31;100544.94;;;24.96;48.06
28628;BME280;15815;46.760;19.604;2022-08-07T06:33:57;100550.88;;;25.08;47.91
28628;BME280;15815;46.760;19.604;2022-08-07T06:36:22;100554.53;;;25.08;48.16
28628;BME280;15815;46.760;19.604;2022-08-07T06:38:51;100561.94;;;25.15;47.67
28628;BME280;15815;46.760;19.604;2022-08-07T06:41:24;100557.88;;;25.21;48.15
28628;BME280;15815;46.760;19.604;2022-08-07T06:43:52;100557.69;;;25.25;47.50
28628;BME280;15815;46.760;19.604;2022-08-07T06:46:19;100553.72;;;25.22;47.36
28628;BME280;15815;46.760;19.604;2022-08-07T06:48:44;100547.75;;;25.26;46.65
28628;BME280;15815;46.760;19.604;2022-08-07T06:51:16;100552.00;;;25.31;47.10
28628;BME280;15815;46.760;19.604;2022-08-07T06:53:42;100550.91;;;25.28;47.09
28628;BME280;15815;46.760;19.604;2022-08-07T06:56:10;100554.66;;;25.34;47.11
28628;BME280;15815;46.760;19.604;2022-08-07T06:58:38;100548.19;;;25.39;46.82
28628;BME280;15815;46.760;19.604;2022-08-07T07:01:06;100548.63;;;25.32;46.69
28628;BME280;15815;46.760;19.604;2022-08-07T07:03:33;100546.25;;;25.31;47.31
28628;BME280;15815;46.760;19.604;2022-08-07T07:05:59;100549.34;;;25.27;47.33
28628;BME280;15815;46.760;19.604;2022-08-07T07:08:26;100558.53;;;25.31;47.53
28628;BME280;15815;46.760;19.604;2022-08-07T07:10:52;100557.31;;;25.38;47.30
28628;BME280;15815;46.760;19.604;2022-08-07T07:13:22;100561.16;;;25.49;47.28
28628;BME280;15815;46.760;19.604;2022-08-07T07:15:56;100561.00;;;25.58;47.49
28628;BME280;15815;46.760;19.604;2022-08-07T07:18:28;100553.75;;;25.63;47.28
28628;BME280;15815;46.760;19.604;2022-08-07T07:21:05;100554.13;;;25.71;47.43
28628;BME280;15815;46.760;19.604;2022-08-07T07:23:32;100555.78;;;25.77;46.94
28628;BME280;15815;46.760;19.604;2022-08-07T07:26:02;100559.19;;;25.76;47.49
28628;BME280;15815;46.760;19.604;2022-08-07T07:28:39;100553.31;;;25.91;46.78
28628;BME280;15815;46.760;19.604;2022-08-07T07:31:36;100553.38;;;25.96;46.62
28628;BME280;15815;46.760;19.604;2022-08-07T07:34:07;100562.00;;;25.96;47.19
28628;BME280;15815;46.760;19.604;2022-08-07T07:36:36;100559.00;;;26.05;46.59
28628;BME280;15815;46.760;19.604;2022-08-07T07:39:03;100551.38;;;26.02;46.12
28628;BME280;15815;46.760;19.604;2022-08-07T07:41:31;100554.97;;;25.97;46.49
28628;BME280;15815;46.760;19.604;2022-08-07T07:43:59;100566.75;;;25.99;46.38
28628;BME280;15815;46.760;19.604;2022-08-07T07:46:27;100564.97;;;26.02;46.31
28628;BME280;15815;46.760;19.604;2022-08-07T07:48:54;100558.41;;;26.01;46.37
28628;BME280;15815;46.760;19.604;2022-08-07T07:51:21;100552.16;;;26.03;46.32
28628;BME280;15815;46.760;19.604;2022-08-07T07:53:48;100553.97;;;26.26;46.10
28628;BME280;15815;46.760;19.604;2022-08-07T07:56:15;100555.34;;;26.31;46.08
28628;BME280;15815;46.760;19.604;2022-08-07T07:58:42;100555.19;;;26.40;45.18
28628;BME280;15815;46.760;19.604;2022-08-07T08:01:09;100561.59;;;26.29;45.46
28628;BME280;15815;46.760;19.604;2022-08-07T08:03:36;100563.13;;;26.25;45.79
28628;BME280;15815;46.760;19.604;2022-08-07T08:06:03;100565.16;;;26.18;45.78
28628;BME280;15815;46.760;19.604;2022-08-07T08:08:30;100564.69;;;26.26;46.21
28628;BME280;15815;46.760;19.604;2022-08-07T08:10:59;100573.03;;;26.44;45.84
28628;BME280;15815;46.760;19.604;2022-08-07T08:13:26;100568.34;;;26.46;45.75
28628;BME280;15815;46.760;19.604;2022-08-07T08:15:53;100564.72;;;26.52;45.68
28628;BME280;15815;46.760;19.604;2022-08-07T08:18:22;100586.25;;;26.56;45.78
28628;BME280;15815;46.760;19.604;2022-08-07T08:20:48;100569.31;;;26.64;45.39
28628;BME280;15815;46.760;19.604;2022-08-07T08:23:16;100570.69;;;26.74;45.74
28628;BME280;15815;46.760;19.604;2022-08-07T08:26:03;100581.22;;;26.77;46.50
28628;BME280;15815;46.760;19.604;2022-08-07T08:28:50;100584.13;;;26.83;45.71
28628;BME280;15815;46.760;19.604;2022-08-07T08:31:22;100590.47;;;26.87;46.18
28628;BME280;15815;46.760;19.604;2022-08-07T08:33:51;100575.19;;;26.80;45.93
28628;BME280;15815;46.760;19.604;2022-08-07T08:36:18;100588.44;;;26.93;45.58
28628;BME280;15815;46.760;19.604;2022-08-07T08:38:46;100598.25;;;27.06;45.19
28628;BME280;15815;46.760;19.604;2022-08-07T08:44:18;100606.97;;;27.12;45.44
28628;BME280;15815;46.760;19.604;2022-08-07T08:47:01;100606.50;;;27.19;45.06
28628;BME280;15815;46.760;19.604;2022-08-07T08:49:39;100598.31;;;27.12;45.59
28628;BME280;15815;46.760;19.604;2022-08-07T08:52:37;100603.34;;;27.17;45.49
28628;BME280;15815;46.760;19.604;2022-08-07T08:55:43;100610.75;;;27.29;45.16
28628;BME280;15815;46.760;19.604;2022-08-07T08:58:28;100609.66;;;27.21;45.92
28628;BME280;15815;46.760;19.604;2022-08-07T09:01:16;100612.06;;;27.28;45.88
28628;BME280;15815;46.760;19.604;2022-08-07T09:04:06;100611.56;;;27.35;44.71
28628;BME280;15815;46.760;19.604;2022-08-07T09:07:13;100619.44;;;27.35;44.34
28628;BME280;15815;46.760;19.604;2022-08-07T09:09:53;100610.28;;;27.36;44.60
28628;BME280;15815;46.760;19.604;2022-08-07T09:12:57;100612.44;;;27.42;43.46
28628;BME280;15815;46.760;19.604;2022-08-07T09:15:59;100614.47;;;27.35;44.15
28628;BME280;15815;46.760;19.604;2022-08-07T09:18:25;100605.53;;;27.33;44.64
28628;BME280;15815;46.760;19.604;2022-08-07T09:21:26;100606.00;;;27.26;44.72
28628;BME280;15815;46.760;19.604;2022-08-07T09:24:04;100601.59;;;27.31;44.65
28628;BME280;15815;46.760;19.604;2022-08-07T09:29:54;100605.56;;;27.39;44.11
28628;BME280;15815;46.760;19.604;2022-08-07T09:32:32;100595.91;;;27.42;43.57
28628;BME280;15815;46.760;19.604;2022-08-07T09:38:08;100589.63;;;27.49;43.77
28628;BME280;15815;46.760;19.604;2022-08-07T09:48:48;100577.19;;;27.69;43.74
28628;BME280;15815;46.760;19.604;2022-08-07T09:53:49;100568.81;;;27.77;43.90
28628;BME280;15815;46.760;19.604;2022-08-07T10:02:07;100549.13;;;27.86;43.76
28628;BME280;15815;46.760;19.604;2022-08-07T10:07:33;100553.34;;;27.85;45.58
28628;BME280;15815;46.760;19.604;2022-08-07T10:13:43;100535.81;;;28.06;43.09
28628;BME280;15815;46.760;19.604;2022-08-07T10:16:40;100537.13;;;27.99;43.84
28628;BME280;15815;46.760;19.604;2022-08-07T10:27:54;100530.88;;;28.23;44.53
28628;BME280;15815;46.760;19.604;2022-08-07T10:30:35;100530.91;;;28.34;43.34
28628;BME280;15815;46.760;19.604;2022-08-07T10:36:22;100531.94;;;28.42;43.89
28628;BME280;15815;46.760;19.604;2022-08-07T10:38:52;100527.25;;;28.50;43.77
28628;BME280;15815;46.760;19.604;2022-08-07T10:41:38;100523.56;;;28.55;43.21
28628;BME280;15815;46.760;19.604;2022-08-07T10:44:26;100518.28;;;28.71;42.63
28628;BME280;15815;46.760;19.604;2022-08-07T10:50:00;100523.56;;;28.61;43.16
28628;BME280;15815;46.760;19.604;2022-08-07T10:55:40;100513.31;;;28.77;42.39
28628;BME280;15815;46.760;19.604;2022-08-07T10:58:24;100520.66;;;28.83;42.96
28628;BME280;15815;46.760;19.604;2022-08-07T11:03:40;100509.63;;;28.87;41.71
28628;BME280;15815;46.760;19.604;2022-08-07T11:06:20;100510.94;;;28.81;42.87
28628;BME280;15815;46.760;19.604;2022-08-07T11:09:02;100514.38;;;28.85;42.64
28628;BME280;15815;46.760;19.604;2022-08-07T11:11:35;100509.09;;;29.00;41.76
28628;BME280;15815;46.760;19.604;2022-08-07T11:14:14;100506.72;;;29.10;41.51
28628;BME280;15815;46.760;19.604;2022-08-07T11:16:51;100505.41;;;29.05;41.40
28628;BME280;15815;46.760;19.604;2022-08-07T11:19:55;100508.06;;;28.92;41.98
28628;BME280;15815;46.760;19.604;2022-08-07T11:22:41;100508.81;;;28.98;41.94
28628;BME280;15815;46.760;19.604;2022-08-07T11:25:14;100507.75;;;29.01;41.95
28628;BME280;15815;46.760;19.604;2022-08-07T11:28:01;100497.25;;;29.09;41.42
28628;BME280;15815;46.760;19.604;2022-08-07T11:30:34;100490.63;;;29.20;42.52
28628;BME280;15815;46.760;19.604;2022-08-07T11:33:22;100494.31;;;29.15;41.12
28628;BME280;15815;46.760;19.604;2022-08-07T11:38:56;100482.47;;;29.18;41.53
28628;BME280;15815;46.760;19.604;2022-08-07T11:41:28;100474.03;;;29.20;40.54
28628;BME280;15815;46.760;19.604;2022-08-07T11:46:47;100470.13;;;29.18;40.39
28628;BME280;15815;46.760;19.604;2022-08-07T11:49:24;100479.53;;;29.30;39.68
28628;BME280;15815;46.760;19.604;2022-08-07T11:57:43;100466.59;;;29.42;40.57
28628;BME280;15815;46.760;19.604;2022-08-07T12:00:17;100454.75;;;29.51;39.55
28628;BME280;15815;46.760;19.604;2022-08-07T12:08:43;100449.22;;;29.47;40.01
28628;BME280;15815;46.760;19.604;2022-08-07T12:11:21;100447.59;;;29.63;39.35
28628;BME280;15815;46.760;19.604;2022-08-07T12:14:14;100444.47;;;29.50;40.14
28628;BME280;15815;46.760;19.604;2022-08-07T12:16:55;100449.19;;;29.53;39.18
28628;BME280;15815;46.760;19.604;2022-08-07T12:19:33;100433.91;;;29.58;40.61
28628;BME280;15815;46.760;19.604;2022-08-07T12:22:11;100444.69;;;29.58;39.92
28628;BME280;15815;46.760;19.604;2022-08-07T12:27:50;100439.97;;;29.54;39.68
28628;BME280;15815;46.760;19.604;2022-08-07T12:30:18;100433.88;;;29.64;39.10
28628;BME280;15815;46.760;19.604;2022-08-07T12:33:00;100431.28;;;29.60;39.62
28628;BME280;15815;46.760;19.604;2022-08-07T12:35:27;100420.97;;;29.65;39.53
28628;BME280;15815;46.760;19.604;2022-08-07T12:37:55;100417.84;;;29.63;39.04
28628;BME280;15815;46.760;19.604;2022-08-07T12:40:24;100417.47;;;29.77;39.90
28628;BME280;15815;46.760;19.604;2022-08-07T12:42:51;100408.25;;;29.79;39.86
28628;BME280;15815;46.760;19.604;2022-08-07T12:45:26;100416.81;;;29.96;39.22
28628;BME280;15815;46.760;19.604;2022-08-07T12:56:01;100411.91;;;30.21;38.42
28628;BME280;15815;46.760;19.604;2022-08-07T12:58:32;100419.84;;;30.20;38.28
28628;BME280;15815;46.760;19.604;2022-08-07T13:07:18;100399.44;;;29.96;39.74
28628;BME280;15815;46.760;19.604;2022-08-07T13:16:01;100399.44;;;30.31;38.28
28628;BME280;15815;46.760;19.604;2022-08-07T13:21:35;100394.00;;;30.22;37.88
28628;BME280;15815;46.760;19.604;2022-08-07T13:29:46;100382.03;;;30.31;38.01
28628;BME280;15815;46.760;19.604;2022-08-07T13:32:24;100387.84;;;30.31;37.53
28628;BME280;15815;46.760;19.604;2022-08-07T13:34:59;100378.16;;;30.23;38.30
28628;BME280;15815;46.760;19.604;2022-08-07T13:38:01;100381.31;;;30.25;38.08
28628;BME280;15815;46.760;19.604;2022-08-07T13:40:30;100381.41;;;30.14;38.96
28628;BME280;15815;46.760;19.604;2022-08-07T13:43:05;100383.13;;;30.28;37.68
28628;BME280;15815;46.760;19.604;2022-08-07T13:45:33;100379.63;;;30.35;38.18
28628;BME280;15815;46.760;19.604;2022-08-07T13:48:02;100368.63;;;30.28;37.33
28628;BME280;15815;46.760;19.604;2022-08-07T13:50:29;100367.72;;;30.39;37.22
28628;BME280;15815;46.760;19.604;2022-08-07T13:52:55;100364.16;;;30.27;37.97
28628;BME280;15815;46.760;19.604;2022-08-07T13:55:22;100369.94;;;30.27;37.70
28628;BME280;15815;46.760;19.604;2022-08-07T13:57:52;100362.63;;;30.21;38.56
28628;BME280;15815;46.760;19.604;2022-08-07T14:00:31;100355.38;;;30.63;36.89
28628;BME280;15815;46.760;19.604;2022-08-07T14:02:59;100355.66;;;30.59;37.38
28628;BME280;15815;46.760;19.604;2022-08-07T14:05:26;100353.84;;;30.56;37.64
28628;BME280;15815;46.760;19.604;2022-08-07T14:07:53;100354.41;;;30.79;36.41
28628;BME280;15815;46.760;19.604;2022-08-07T14:10:19;100356.16;;;30.88;36.27
28628;BME280;15815;46.760;19.604;2022-08-07T14:12:51;100351.44;;;30.60;37.31
28628;BME280;15815;46.760;19.604;2022-08-07T14:17:53;100351.97;;;30.59;36.94
28628;BME280;15815;46.760;19.604;2022-08-07T14:20:23;100350.03;;;30.42;38.01
28628;BME280;15815;46.760;19.604;2022-08-07T14:22:58;100342.41;;;30.69;37.23
28628;BME280;15815;46.760;19.604;2022-08-07T14:25:27;100344.53;;;30.88;35.61
28628;BME280;15815;46.760;19.604;2022-08-07T14:27:54;100351.19;;;30.83;35.78
28628;BME280;15815;46.760;19.604;2022-08-07T14:30:20;100349.81;;;30.65;37.36
28628;BME280;15815;46.760;19.604;2022-08-07T14:32:50;100340.75;;;30.50;37.27
28628;BME280;15815;46.760;19.604;2022-08-07T14:35:24;100339.41;;;30.51;36.74
28628;BME280;15815;46.760;19.604;2022-08-07T14:37:52;100337.56;;;30.78;36.37
28628;BME280;15815;46.760;19.604;2022-08-07T14:40:20;100337.97;;;30.63;37.32
28628;BME280;15815;46.760;19.604;2022-08-07T14:42:53;100337.63;;;30.72;36.44
28628;BME280;15815;46.760;19.604;2022-08-07T14:45:19;100337.78;;;30.80;36.17
28628;BME280;15815;46.760;19.604;2022-08-07T14:47:45;100329.75;;;30.67;37.19
28628;BME280;15815;46.760;19.604;2022-08-07T14:50:14;100330.34;;;30.60;36.36